Time;durP1;ratioP1;P1;durP2;ratioP2;P2;SDS_P1;SDS_P2;PMS_P1;PMS_P2;Temp;Humidity;BMP_temperature;BMP_pressure;BME280_temperature;BME280_humidity;BME280_pressure;Samples;Min_cycle;Max_cycle;Signal;HPM_P1;HPM_P2
2023/11/12 00:01:47;;;;;;;;;;;;;;;19.69;53.83;99956.03;5043538;28;6000;-69
2023/11/12 00:04:13;;;;;;;;;;;;;;;19.69;53.82;99961.78;5042515;28;2054;-68
2023/11/12 00:06:40;;;;;;;;;;;;;;;19.67;54.10;99957.38;5043825;28;1776;-68
2023/11/12 00:09:08;;;;;;;;;;;;;;;19.66;53.84;99958.81;5041177;28;2258;-68
2023/11/12 00:11:35;;;;;;;;;;;;;;;19.65;53.97;99957.34;5043720;28;1711;-69
2023/11/12 00:14:01;;;;;;;;;;;;;;;19.65;54.02;99957.34;5041685;28;1998;-68
2023/11/12 00:16:28;;;;;;;;;;;;;;;19.64;54.06;99947.25;5040013;28;2100;-68
2023/11/12 00:18:54;;;;;;;;;;;;;;;19.64;54.08;99950.09;5042168;28;2124;-68
2023/11/12 00:21:21;;;;;;;;;;;;;;;19.65;53.84;99950.84;5040411;28;2101;-68
2023/11/12 00:23:47;;;;;;;;;;;;;;;19.64;53.93;99950.09;5041330;28;2153;-68
2023/11/12 00:26:14;;;;;;;;;;;;;;;19.64;54.04;99944.38;5041812;28;2084;-68
2023/11/12 00:28:47;;;;;;;;;;;;;;;19.63;53.82;99947.91;5041922;28;2097;-68
2023/11/12 00:31:14;;;;;;;;;;;;;;;19.63;53.93;99954.41;5041147;28;6380;-68
2023/11/12 00:33:41;;;;;;;;;;;;;;;19.62;53.98;99952.91;5040474;28;3222;-69
2023/11/12 00:36:09;;;;;;;;;;;;;;;19.62;53.91;99952.91;5041494;28;1625;-69
2023/11/12 00:38:36;;;;;;;;;;;;;;;19.62;54.00;99950.03;5040790;28;2310;-69
2023/11/12 00:41:03;;;;;;;;;;;;;;;19.60;53.90;99947.09;5043513;28;2062;-68
2023/11/12 00:43:30;;;;;;;;;;;;;;;19.61;53.88;99950.72;5055882;28;2434;-68
2023/11/12 00:45:59;;;;;;;;;;;;;;;19.60;53.96;99949.22;5040262;28;2513;-68
2023/11/12 00:48:26;;;;;;;;;;;;;;;19.59;54.00;99950.66;5039804;28;2074;-68
2023/11/12 00:50:52;;;;;;;;;;;;;;;19.59;53.89;99954.25;5055804;28;2132;-68
2023/11/12 00:53:19;;;;;;;;;;;;;;;19.58;53.87;99963.50;5043092;28;2126;-68
2023/11/12 00:55:46;;;;;;;;;;;;;;;19.59;53.83;99960.00;5043391;28;2125;-68
2023/11/12 00:58:12;;;;;;;;;;;;;;;19.58;53.99;99964.25;5037138;28;2465;-68
2023/11/12 01:00:41;;;;;;;;;;;;;;;19.58;53.93;99964.25;5040038;28;6170;-68
2023/11/12 01:03:08;;;;;;;;;;;;;;;19.58;53.97;99970.00;5040363;28;3203;-68
2023/11/12 01:05:35;;;;;;;;;;;;;;;19.57;53.92;99968.53;5025476;28;2153;-68
2023/11/12 01:08:02;;;;;;;;;;;;;;;19.57;54.09;99968.53;5037818;28;2576;-68
2023/11/12 01:10:28;;;;;;;;;;;;;;;19.57;54.01;99970.66;5038012;28;2194;-68
2023/11/12 01:12:56;;;;;;;;;;;;;;;19.54;53.88;99967.00;5037201;28;2118;-68
2023/11/12 01:15:23;;;;;;;;;;;;;;;19.53;53.97;99974.13;5040083;28;2225;-68
2023/11/12 01:17:49;;;;;;;;;;;;;;;19.54;53.87;99969.88;5040586;28;2058;-68
2023/11/12 01:20:15;;;;;;;;;;;;;;;19.54;53.86;99980.59;5038273;28;2130;-68
2023/11/12 01:22:43;;;;;;;;;;;;;;;19.53;53.94;99974.13;5038442;28;2062;-68
2023/11/12 01:25:10;;;;;;;;;;;;;;;19.53;53.86;99974.13;5042297;28;2105;-69
2023/11/12 01:27:36;;;;;;;;;;;;;;;19.53;53.90;99979.13;5038606;28;2127;-68
2023/11/12 01:30:03;;;;;;;;;;;;;;;19.53;54.03;99977.00;5038804;28;2157;-68
2023/11/12 01:32:30;;;;;;;;;;;;;;;19.54;53.79;99981.34;5040763;28;6146;-68
2023/11/12 01:34:57;;;;;;;;;;;;;;;19.52;53.86;99978.41;5041767;28;2014;-67
2023/11/12 01:37:23;;;;;;;;;;;;;;;19.55;53.73;99977.06;5040829;28;1991;-68
2023/11/12 01:39:50;;;;;;;;;;;;;;;19.57;53.94;99980.03;5038074;28;2171;-68
2023/11/12 01:42:16;;;;;;;;;;;;;;;19.56;53.97;99978.56;5040696;28;2101;-68
2023/11/12 01:44:43;;;;;;;;;;;;;;;19.58;53.77;99975.72;5054282;28;2111;-68
2023/11/12 01:47:10;;;;;;;;;;;;;;;19.60;53.70;99977.94;5041592;28;2038;-68
2023/11/12 01:49:36;;;;;;;;;;;;;;;19.60;53.64;99975.81;5025060;28;2274;-68
2023/11/12 01:52:06;;;;;;;;;;;;;;;19.60;53.67;99972.19;5040877;28;2105;-68
2023/11/12 01:54:33;;;;;;;;;;;;;;;19.61;53.77;99974.41;5039526;28;2647;-68
2023/11/12 01:56:59;;;;;;;;;;;;;;;19.61;53.60;99970.81;5038809;28;2181;-68
2023/11/12 01:59:30;;;;;;;;;;;;;;;19.61;53.77;99968.69;5055896;28;2180;-68
2023/11/12 02:01:57;;;;;;;;;;;;;;;19.62;53.63;99970.13;5038867;28;6522;-68
2023/11/12 02:04:23;;;;;;;;;;;;;;;19.61;53.58;99962.94;5037303;28;2126;-68
2023/11/12 02:06:50;;;;;;;;;;;;;;;19.60;53.57;99961.44;5038407;28;2197;-68
2023/11/12 02:09:17;;;;;;;;;;;;;;;19.59;53.59;99960.00;5037955;28;2160;-68
2023/11/12 02:11:44;;;;;;;;;;;;;;;19.59;53.83;99962.84;5039461;28;2093;-68
2023/11/12 02:14:11;;;;;;;;;;;;;;;19.59;53.71;99960.00;5038745;28;2183;-68
2023/11/12 02:16:37;;;;;;;;;;;;;;;19.58;53.75;99958.50;5039988;28;2115;-68
2023/11/12 02:19:04;;;;;;;;;;;;;;;19.58;53.61;99958.50;5036458;28;2144;-68
2023/11/12 02:21:33;;;;;;;;;;;;;;;19.58;53.77;99952.03;5038390;28;2133;-68
2023/11/12 02:24:00;;;;;;;;;;;;;;;19.58;53.67;99958.50;5037361;28;2160;-67
2023/11/12 02:26:26;;;;;;;;;;;;;;;19.57;53.73;99950.56;5054386;28;2236;-68
2023/11/12 02:28:53;;;;;;;;;;;;;;;19.56;53.74;99961.31;5035118;28;2106;-68
2023/11/12 02:31:19;;;;;;;;;;;;;;;19.56;53.86;99961.31;5034657;28;6281;-68
2023/11/12 02:33:47;;;;;;;;;;;;;;;19.56;53.82;99958.47;5036417;28;3000;-68
2023/11/12 02:36:14;;;;;;;;;;;;;;;19.55;53.81;99965.59;5037358;28;2391;-68
2023/11/12 02:38:40;;;;;;;;;;;;;;;19.55;53.76;99962.72;5034971;28;2106;-68
2023/11/12 02:41:08;;;;;;;;;;;;;;;19.55;53.80;99968.47;5039423;28;2125;-68
2023/11/12 02:43:34;;;;;;;;;;;;;;;19.55;53.71;99959.09;5037723;28;2090;-68
2023/11/12 02:46:01;;;;;;;;;;;;;;;19.54;53.89;99969.09;5034612;28;3360;-68
2023/11/12 02:48:28;;;;;;;;;;;;;;;19.53;53.75;99965.50;5037873;28;2133;-68
2023/11/12 02:50:55;;;;;;;;;;;;;;;19.53;53.75;99971.25;5041287;28;2280;-68
2023/11/12 02:53:21;;;;;;;;;;;;;;;19.52;53.83;99969.78;5038924;28;2110;-68
2023/11/12 02:55:48;;;;;;;;;;;;;;;19.53;53.74;99968.38;5040286;28;2109;-68
2023/11/12 02:58:16;;;;;;;;;;;;;;;19.51;53.87;99970.44;5041199;28;2177;-68
2023/11/12 03:00:43;;;;;;;;;;;;;;;19.50;53.93;99958.22;5042937;28;6121;-68
2023/11/12 03:03:12;;;;;;;;;;;;;;;19.51;53.92;99953.94;5057230;28;2311;-68
2023/11/12 03:05:40;;;;;;;;;;;;;;;19.50;53.88;99961.09;5038565;28;2232;-68
2023/11/12 03:08:06;;;;;;;;;;;;;;;19.50;53.88;99958.22;5043324;28;2388;-69
2023/11/12 03:10:33;;;;;;;;;;;;;;;19.50;53.93;99966.13;5039557;28;2304;-68
2023/11/12 03:12:59;;;;;;;;;;;;;;;19.48;53.86;99966.78;5042785;28;2105;-68
2023/11/12 03:15:26;;;;;;;;;;;;;;;19.49;53.89;99961.75;5041880;28;2213;-71
2023/11/12 03:17:53;;;;;;;;;;;;;;;19.48;54.00;99966.03;5040709;28;2189;-78
2023/11/12 03:20:19;;;;;;;;;;;;;;;19.47;54.07;99962.44;5041087;28;2069;-78
2023/11/12 03:22:46;;;;;;;;;;;;;;;19.46;53.91;99963.81;5045568;28;2451;-79
2023/11/12 03:25:12;;;;;;;;;;;;;;;19.47;53.99;99968.19;5044075;28;2339;-78
2023/11/12 03:27:39;;;;;;;;;;;;;;;19.45;53.89;99968.09;5042341;28;2127;-78
2023/11/12 03:30:06;;;;;;;;;;;;;;;19.46;54.13;99970.28;5040422;28;6196;-78
2023/11/12 03:32:32;;;;;;;;;;;;;;;19.46;53.99;99963.81;5042169;28;2077;-78
2023/11/12 03:35:00;;;;;;;;;;;;;;;19.45;53.91;99965.22;5041350;28;2104;-78
2023/11/12 03:37:27;;;;;;;;;;;;;;;19.46;53.83;99963.81;5041601;28;2126;-78
2023/11/12 03:39:53;;;;;;;;;;;;;;;19.46;53.83;99963.81;5041571;28;2135;-78
2023/11/12 03:42:21;;;;;;;;;;;;;;;19.49;54.01;99973.97;5042735;28;2140;-78
2023/11/12 03:44:49;;;;;;;;;;;;;;;19.50;53.80;99974.72;5027043;28;2075;-79
2023/11/12 03:47:16;;;;;;;;;;;;;;;19.52;53.75;99977.69;5042690;28;2353;-78
2023/11/12 03:49:43;;;;;;;;;;;;;;;19.54;53.80;99975.63;5041594;28;2134;-78
2023/11/12 03:52:09;;;;;;;;;;;;;;;19.55;53.63;99976.34;5042391;28;2047;-78
2023/11/12 03:54:36;;;;;;;;;;;;;;;19.56;53.78;99977.81;5040799;28;2098;-78
2023/11/12 03:57:03;;;;;;;;;;;;;;;19.56;53.71;99984.31;5039491;28;2113;-78
2023/11/12 03:59:29;;;;;;;;;;;;;;;19.56;53.77;99978.56;5041506;28;2533;-79
2023/11/12 04:01:56;;;;;;;;;;;;;;;19.57;53.52;99976.41;5041023;28;6149;-79
2023/11/12 04:04:22;;;;;;;;;;;;;;;19.57;53.70;99979.28;5035460;28;2152;-79
2023/11/12 04:06:49;;;;;;;;;;;;;;;19.57;53.76;99985.75;5041720;28;2545;-79
2023/11/12 04:09:15;;;;;;;;;;;;;;;19.57;53.67;99980.03;5042762;28;2263;-79
2023/11/12 04:11:42;;;;;;;;;;;;;;;19.58;53.72;99980.75;5042627;28;2269;-79
2023/11/12 04:14:08;;;;;;;;;;;;;;;19.57;53.69;99980.03;5056274;28;2164;-79
2023/11/12 04:16:35;;;;;;;;;;;;;;;19.58;53.84;99984.34;5031630;28;2274;-79
2023/11/12 04:19:02;;;;;;;;;;;;;;;19.59;53.53;99993.72;5040340;28;2046;-78
2023/11/12 04:21:32;;;;;;;;;;;;;;;19.59;53.53;99988.72;5038420;28;2316;-79
2023/11/12 04:23:58;;;;;;;;;;;;;;;19.59;53.61;99976.50;5039137;28;2121;-79
2023/11/12 04:26:25;;;;;;;;;;;;;;;19.60;53.80;99978.69;5041810;28;2073;-79
2023/11/12 04:28:51;;;;;;;;;;;;;;;19.62;53.77;99981.63;5040024;28;2098;-79
2023/11/12 04:31:17;;;;;;;;;;;;;;;19.62;53.70;99978.03;5039671;28;6271;-79
2023/11/12 04:33:45;;;;;;;;;;;;;;;19.62;53.59;99980.91;5041087;28;2097;-79
2023/11/12 04:36:12;;;;;;;;;;;;;;;19.62;53.65;99986.63;5047817;28;2387;-79
2023/11/12 04:38:39;;;;;;;;;;;;;;;19.62;53.70;99978.03;5043178;28;2281;-79
2023/11/12 04:41:05;;;;;;;;;;;;;;;19.62;53.83;99981.63;5043049;28;2097;-79
2023/11/12 04:43:32;;;;;;;;;;;;;;;19.63;53.59;99983.13;5041373;28;2074;-78
2023/11/12 04:45:58;;;;;;;;;;;;;;;19.63;53.64;99983.13;5038513;28;3196;-78
2023/11/12 04:48:25;;;;;;;;;;;;;;;19.63;53.78;99985.97;5038023;28;2329;-78
2023/11/12 04:50:51;;;;;;;;;;;;;;;19.64;53.70;99990.31;5037809;28;2145;-78
2023/11/12 04:53:18;;;;;;;;;;;;;;;19.64;53.62;99990.31;5039488;28;2127;-78
2023/11/12 04:55:44;;;;;;;;;;;;;;;19.64;53.76;99990.31;5041986;28;2135;-79
2023/11/12 04:58:11;;;;;;;;;;;;;;;19.64;53.74;99990.31;5038219;28;2230;-78
2023/11/12 05:00:38;;;;;;;;;;;;;;;19.65;53.92;99991.81;5039789;28;6866;-78
2023/11/12 05:03:05;;;;;;;;;;;;;;;19.64;53.89;99998.94;5037684;28;3172;-78
2023/11/12 05:05:32;;;;;;;;;;;;;;;19.65;53.70;100002.53;5039890;28;2257;-79
2023/11/12 05:07:58;;;;;;;;;;;;;;;19.65;53.89;100011.91;5041410;28;2084;-79
2023/11/12 05:10:25;;;;;;;;;;;;;;;19.66;53.82;100001.88;5040989;28;2183;-78
2023/11/12 05:13:11;;;;;;;;;;;;;;;19.67;53.67;100000.47;5043998;28;2195;-78
2023/11/12 05:15:37;;;;;;;;;;;;;;;19.66;53.84;99996.13;5049169;28;2114;-78
2023/11/12 05:18:05;;;;;;;;;;;;;;;19.67;53.86;100000.47;5040442;28;2175;-78
2023/11/12 05:20:35;;;;;;;;;;;;;;;19.69;53.84;100001.97;5041565;28;2086;-78
2023/11/12 05:23:02;;;;;;;;;;;;;;;19.69;53.71;100013.47;5037860;28;2629;-78
2023/11/12 05:25:28;;;;;;;;;;;;;;;19.69;53.72;100013.47;5041472;28;2133;-78
2023/11/12 05:27:55;;;;;;;;;;;;;;;19.69;53.73;100008.47;5049090;28;2221;-79
2023/11/12 05:30:22;;;;;;;;;;;;;;;19.67;53.73;100020.56;5047680;28;6058;-79
2023/11/12 05:32:50;;;;;;;;;;;;;;;19.68;53.71;100018.47;5025629;28;2228;-79
2023/11/12 05:35:20;;;;;;;;;;;;;;;19.69;53.95;100013.47;5043255;28;2073;-79
2023/11/12 05:37:49;;;;;;;;;;;;;;;19.69;53.94;100014.19;5040253;28;2299;-80
2023/11/12 05:40:16;;;;;;;;;;;;;;;19.70;53.92;100014.94;5039712;28;2062;-79
2023/11/12 05:42:42;;;;;;;;;;;;;;;19.70;53.95;100020.69;5034668;28;2188;-79
2023/11/12 05:45:09;;;;;;;;;;;;;;;19.71;53.79;100022.16;5039114;28;2506;-80
2023/11/12 05:47:35;;;;;;;;;;;;;;;19.71;53.73;100016.41;5041419;28;2408;-79
2023/11/12 05:50:02;;;;;;;;;;;;;;;19.71;53.82;100016.41;5038545;28;2114;-79
2023/11/12 05:52:28;;;;;;;;;;;;;;;19.73;53.77;100036.59;5038012;28;2123;-78
2023/11/12 05:54:55;;;;;;;;;;;;;;;19.73;53.79;100030.84;5057502;28;2089;-78
2023/11/12 05:57:22;;;;;;;;;;;;;;;19.73;53.78;100036.59;5038135;28;2093;-79
2023/11/12 05:59:49;;;;;;;;;;;;;;;19.73;53.91;100039.47;5041497;28;2078;-79
2023/11/12 06:02:15;;;;;;;;;;;;;;;19.73;54.01;100042.34;5037177;28;6157;-79
2023/11/12 06:04:42;;;;;;;;;;;;;;;19.73;53.71;100043.06;5039762;28;2078;-78
2023/11/12 06:07:09;;;;;;;;;;;;;;;19.73;53.79;100040.19;5039161;28;2160;-79
2023/11/12 06:09:35;;;;;;;;;;;;;;;19.73;53.94;100045.22;5037912;28;2187;-78
2023/11/12 06:12:04;;;;;;;;;;;;;;;19.73;53.91;100042.34;5037985;28;2327;-78
2023/11/12 06:14:32;;;;;;;;;;;;;;;19.74;53.84;100049.53;5039932;28;2061;-78
2023/11/12 06:16:59;;;;;;;;;;;;;;;19.75;53.99;100056.78;5037725;28;2155;-79
2023/11/12 06:19:25;;;;;;;;;;;;;;;19.75;53.84;100062.53;5042173;28;2218;-78
2023/11/12 06:21:52;;;;;;;;;;;;;;;19.75;54.00;100059.66;5039656;28;2122;-79
2023/11/12 06:24:19;;;;;;;;;;;;;;;19.76;53.82;100058.25;5038051;28;2456;-78
2023/11/12 06:26:45;;;;;;;;;;;;;;;19.75;54.02;100056.78;5040255;28;2027;-79
2023/11/12 06:29:12;;;;;;;;;;;;;;;19.76;53.97;100069.72;5039382;28;2011;-78
2023/11/12 06:31:39;;;;;;;;;;;;;;;19.76;53.84;100061.13;5039344;28;6186;-79
2023/11/12 06:34:05;;;;;;;;;;;;;;;19.75;53.92;100062.53;5032465;28;3131;-78
2023/11/12 06:36:32;;;;;;;;;;;;;;;19.75;53.81;100059.66;5038932;28;2147;-79
2023/11/12 06:38:58;;;;;;;;;;;;;;;19.75;54.04;100057.50;5039662;28;2078;-79
2023/11/12 06:41:25;;;;;;;;;;;;;;;19.76;54.03;100070.47;5039041;28;2125;-79
2023/11/12 06:43:51;;;;;;;;;;;;;;;19.78;53.84;100059.06;5037321;28;2333;-81
2023/11/12 06:46:17;;;;;;;;;;;;;;;19.78;53.79;100061.19;5039085;28;2081;-84
2023/11/12 06:48:44;;;;;;;;;;;;;;;18.35;47.56;100068.56;5047260;28;2105;-82
2023/11/12 06:51:19;;;;;;;;;;;;;;;16.71;47.80;100080.44;5039066;28;2090;-81
2023/11/12 06:53:46;;;;;;;;;;;;;;;16.10;48.80;100087.44;5036367;28;2490;-78
2023/11/12 06:56:12;;;;;;;;;;;;;;;15.73;49.33;100084.78;5038027;28;2102;-78
2023/11/12 06:58:42;;;;;;;;;;;;;;;15.52;49.68;100085.06;5038185;28;2398;-79
2023/11/12 07:01:08;;;;;;;;;;;;;;;16.70;48.39;100087.53;5037182;28;6415;-79
2023/11/12 07:03:35;;;;;;;;;;;;;;;17.69;46.84;100081.44;5026019;28;3076;-78
2023/11/12 07:06:05;;;;;;;;;;;;;;;18.20;46.39;100083.66;5034133;28;2168;-79
2023/11/12 07:08:31;;;;;;;;;;;;;;;18.51;46.21;100090.66;5038932;28;2138;-80
2023/11/12 07:10:58;;;;;;;;;;;;;;;18.68;46.25;100089.97;5046057;28;1734;-79
2023/11/12 07:13:24;;;;;;;;;;;;;;;18.79;46.13;100091.16;5039613;28;2145;-79
2023/11/12 07:15:51;;;;;;;;;;;;;;;18.87;46.65;100079.97;5039477;28;2065;-79
2023/11/12 07:18:17;;;;;;;;;;;;;;;18.93;47.13;100088.84;5038342;28;2221;-79
2023/11/12 07:20:44;;;;;;;;;;;;;;;18.96;47.23;100092.53;5038952;28;2227;-79
2023/11/12 07:23:10;;;;;;;;;;;;;;;19.00;47.38;100096.28;5041942;28;1731;-79
2023/11/12 07:25:37;;;;;;;;;;;;;;;19.03;47.45;100097.88;5041694;28;1915;-79
2023/11/12 07:28:03;;;;;;;;;;;;;;;19.07;47.68;100102.28;5038773;28;2124;-79
2023/11/12 07:30:30;;;;;;;;;;;;;;;19.09;47.88;100102.38;5039393;28;6506;-79
2023/11/12 07:32:56;;;;;;;;;;;;;;;19.10;47.71;100104.56;5038310;28;2058;-79
2023/11/12 07:35:23;;;;;;;;;;;;;;;19.12;48.12;100103.91;5042716;28;1601;-79
2023/11/12 07:37:49;;;;;;;;;;;;;;;19.14;48.32;100107.59;5044657;28;2074;-79
2023/11/12 07:40:17;;;;;;;;;;;;;;;19.15;48.34;100114.81;5043401;28;2141;-79
2023/11/12 07:42:44;;;;;;;;;;;;;;;19.18;48.51;100102.03;5043641;28;1808;-79
2023/11/12 07:45:10;;;;;;;;;;;;;;;19.19;48.58;100102.75;5042399;28;1913;-79
2023/11/12 07:47:42;;;;;;;;;;;;;;;19.20;48.64;100110.72;5043982;28;1720;-78
2023/11/12 07:50:08;;;;;;;;;;;;;;;19.23;48.69;100115.13;5042865;28;2290;-79
2023/11/12 07:52:35;;;;;;;;;;;;;;;19.24;48.75;100116.63;5046031;28;2274;-79
2023/11/12 07:55:02;;;;;;;;;;;;;;;19.24;48.81;100110.13;5042216;28;1664;-79
2023/11/12 07:57:28;;;;;;;;;;;;;;;19.24;48.90;100110.88;5044791;28;1565;-79
2023/11/12 07:59:55;;;;;;;;;;;;;;;19.26;48.98;100110.19;5040901;28;2243;-77
2023/11/12 08:02:21;;;;;;;;;;;;;;;17.99;48.91;100117.16;5036880;28;6028;-70
2023/11/12 08:04:48;;;;;;;;;;;;;;;17.54;49.85;100120.09;5036108;28;3277;-70
2023/11/12 08:07:14;;;;;;;;;;;;;;;17.19;49.74;100112.03;5038707;28;2208;-70
2023/11/12 08:09:44;;;;;;;;;;;;;;;17.03;49.79;100115.59;5040751;28;2158;-70
2023/11/12 08:12:10;;;;;;;;;;;;;;;16.71;50.37;100115.47;5040820;28;2152;-70
2023/11/12 08:14:37;;;;;;;;;;;;;;;16.94;49.84;100119.44;5042025;28;1839;-77
2023/11/12 08:17:04;;;;;;;;;;;;;;;17.70;49.15;100120.09;5026672;28;2046;-75
2023/11/12 08:19:30;;;;;;;;;;;;;;;18.32;48.28;100121.44;5056404;28;2142;-76
2023/11/12 08:21:59;;;;;;;;;;;;;;;17.73;47.89;100116.69;5039068;28;2475;-75
2023/11/12 08:24:25;;;;;;;;;;;;;;;17.93;47.87;100110.41;5029198;28;2349;-75
2023/11/12 08:26:52;;;;;;;;;;;;;;;18.33;48.55;100117.19;5040428;28;2371;-75
2023/11/12 08:29:18;;;;;;;;;;;;;;;18.57;48.19;100116.75;5041669;28;2144;-75
2023/11/12 08:31:45;;;;;;;;;;;;;;;18.71;48.56;100114.44;5041335;28;6062;-75
2023/11/12 08:34:11;;;;;;;;;;;;;;;18.81;48.60;100117.78;5042447;28;1577;-75
2023/11/12 08:36:38;;;;;;;;;;;;;;;18.88;48.63;100121.63;5040833;28;2228;-75
2023/11/12 08:39:05;;;;;;;;;;;;;;;18.94;48.59;100118.25;5040459;28;2083;-75
2023/11/12 08:41:31;;;;;;;;;;;;;;;18.97;48.49;100126.31;5043377;28;1886;-75
2023/11/12 08:43:58;;;;;;;;;;;;;;;19.00;48.71;100121.38;5042902;28;2125;-74
2023/11/12 08:46:24;;;;;;;;;;;;;;;19.02;48.91;100124.34;5041723;28;2233;-74
2023/11/12 08:48:51;;;;;;;;;;;;;;;19.04;48.98;100130.91;5043309;28;1855;-74
2023/11/12 08:51:17;;;;;;;;;;;;;;;19.07;49.04;100133.84;5036813;28;3335;-75
2023/11/12 08:53:44;;;;;;;;;;;;;;;19.07;49.00;100130.97;5040868;28;2082;-74
2023/11/12 08:56:12;;;;;;;;;;;;;;;19.09;49.04;100134.66;5042424;28;1698;-75
2023/11/12 08:58:38;;;;;;;;;;;;;;;19.09;49.24;100140.41;5041849;28;1592;-75
2023/11/12 09:01:08;;;;;;;;;;;;;;;19.11;49.09;100128.28;5040364;28;6113;-75
2023/11/12 09:03:35;;;;;;;;;;;;;;;19.12;49.18;100135.47;5038458;28;2977;-75
2023/11/12 09:06:02;;;;;;;;;;;;;;;19.14;49.26;100130.56;5039002;28;3218;-75
2023/11/12 09:08:29;;;;;;;;;;;;;;;19.12;49.38;100144.81;5041145;28;2161;-74
2023/11/12 09:10:55;;;;;;;;;;;;;;;19.04;49.71;100135.91;5043337;28;2152;-76
2023/11/12 09:13:22;;;;;;;;;;;;;;;19.04;49.86;100139.50;5041370;28;2077;-76
2023/11/12 09:15:48;;;;;;;;;;;;;;;19.13;49.52;100146.31;5040090;28;2134;-75
2023/11/12 09:18:15;;;;;;;;;;;;;;;19.17;49.41;100152.22;5037786;28;2226;-72
2023/11/12 09:20:43;;;;;;;;;;;;;;;19.17;49.33;100149.34;5036176;28;2210;-73
2023/11/12 09:23:09;;;;;;;;;;;;;;;19.18;49.31;100159.41;5039307;28;2187;-77
2023/11/12 09:25:36;;;;;;;;;;;;;;;19.18;49.51;100156.56;5037787;28;2159;-79
2023/11/12 09:28:02;;;;;;;;;;;;;;;19.17;49.36;100163.69;5040082;28;2133;-77
2023/11/12 09:30:31;;;;;;;;;;;;;;;19.18;49.49;100159.41;5036390;28;7432;-75
2023/11/12 09:33:17;;;;;;;;;;;;;;;19.18;49.56;100165.16;5040228;28;2130;-78
2023/11/12 09:35:44;;;;;;;;;;;;;;;19.19;49.85;100163.75;5035000;28;3043;-76
2023/11/12 09:38:13;;;;;;;;;;;;;;;19.19;49.74;100166.63;5037509;28;2228;-77
2023/11/12 09:40:39;;;;;;;;;;;;;;;18.60;48.99;100164.19;5040190;28;2157;-76
2023/11/12 09:43:06;;;;;;;;;;;;;;;17.27;49.59;100166.78;5033698;28;2638;-76
2023/11/12 09:45:33;;;;;;;;;;;;;;;18.04;48.82;100160.31;5037759;28;2141;-78
2023/11/12 09:48:07;;;;;;;;;;;;;;;18.56;48.39;100161.88;5041319;28;2092;-79
2023/11/12 09:50:35;;;;;;;;;;;;;;;18.81;48.38;100157.94;5026958;28;1578;-77
2023/11/12 09:53:03;;;;;;;;;;;;;;;18.94;48.50;100161.28;5042697;28;1598;-78
2023/11/12 09:55:30;;;;;;;;;;;;;;;19.00;48.49;100156.53;5036542;28;2112;-77
2023/11/12 09:57:57;;;;;;;;;;;;;;;19.07;48.53;100166.13;5039113;28;2260;-78
2023/11/12 10:00:24;;;;;;;;;;;;;;;19.10;48.62;100152.63;5040524;28;6058;-77
2023/11/12 10:02:50;;;;;;;;;;;;;;;19.13;48.57;100157.06;5037145;28;2238;-77
2023/11/12 10:05:17;;;;;;;;;;;;;;;19.13;48.60;100157.06;5035357;28;3148;-77
2023/11/12 10:07:44;;;;;;;;;;;;;;;19.14;48.71;100159.25;5037249;28;2239;-76
2023/11/12 10:10:26;;;;;;;;;;;;;;;19.15;48.70;100160.75;5037037;28;2221;-76
2023/11/12 10:12:53;;;;;;;;;;;;;;;19.18;48.72;100153.69;5039152;28;2214;-75
2023/11/12 10:15:26;;;;;;;;;;;;;;;19.20;48.87;100158.78;5037550;28;2142;-76
2023/11/12 10:17:53;;;;;;;;;;;;;;;19.19;48.58;100160.16;5046349;28;2277;-75
2023/11/12 10:20:27;;;;;;;;;;;;;;;19.18;48.59;100153.69;5037757;28;2114;-75
2023/11/12 10:22:53;;;;;;;;;;;;;;;19.19;48.70;100149.41;5037278;28;2121;-76
2023/11/12 10:25:40;;;;;;;;;;;;;;;19.20;48.83;100150.91;5036813;28;2447;-76
2023/11/12 10:28:07;;;;;;;;;;;;;;;19.21;48.91;100160.97;5037542;28;2274;-75
2023/11/12 10:30:34;;;;;;;;;;;;;;;19.23;48.85;100154.56;5038080;28;6191;-75
2023/11/12 10:33:13;;;;;;;;;;;;;;;19.22;48.93;100159.59;5037377;28;2208;-76
2023/11/12 10:35:39;;;;;;;;;;;;;;;19.22;49.10;100159.59;5032892;28;3036;-75
2023/11/12 10:38:06;;;;;;;;;;;;;;;19.23;49.17;100155.31;5036238;28;2671;-76
2023/11/12 10:40:32;;;;;;;;;;;;;;;19.41;50.00;100163.19;5030568;28;4124;-72
2023/11/12 10:43:09;;;;;;;;;;;;;;;19.55;49.81;100160.84;5037644;28;2446;-75
2023/11/12 10:45:35;;;;;;;;;;;;;;;19.60;49.17;100173.97;5033817;28;4641;-73
2023/11/12 10:48:04;;;;;;;;;;;;;;;19.66;49.04;100164.84;5037364;28;3118;-72
2023/11/12 10:50:30;;;;;;;;;;;;;;;19.67;49.10;100161.31;5035100;28;2223;-73
2023/11/12 10:52:57;;;;;;;;;;;;;;;19.57;48.76;100169.53;5041915;28;2336;-74
2023/11/12 10:55:24;;;;;;;;;;;;;;;19.45;48.90;100169.09;5042352;28;4173;-74
2023/11/12 10:57:54;;;;;;;;;;;;;;;19.41;49.06;100174.66;5032922;28;2851;-73
2023/11/12 11:00:22;;;;;;;;;;;;;;;19.39;48.92;100171.72;5037459;28;6114;-74
2023/11/12 11:02:48;;;;;;;;;;;;;;;19.37;48.81;100168.75;5034447;28;2298;-73
2023/11/12 11:05:16;;;;;;;;;;;;;;;19.37;48.83;100169.50;5030506;28;2300;-73
2023/11/12 11:07:43;;;;;;;;;;;;;;;19.37;48.94;100174.50;5034976;28;2484;-74
2023/11/12 11:10:10;;;;;;;;;;;;;;;19.34;49.08;100176.56;5030624;28;4023;-74
2023/11/12 11:12:37;;;;;;;;;;;;;;;19.35;49.20;100171.53;5040235;28;2496;-74
2023/11/12 11:15:22;;;;;;;;;;;;;;;19.52;52.03;100182.28;5042237;28;2231;-76
2023/11/12 11:17:49;;;;;;;;;;;;;;;20.08;50.97;100177.22;5041348;28;2493;-75
2023/11/12 11:20:16;;;;;;;;;;;;;;;20.25;49.59;100175.69;5041097;28;2318;-75
2023/11/12 11:22:44;;;;;;;;;;;;;;;20.35;48.89;100172.44;5041196;28;2215;-75
2023/11/12 11:25:21;;;;;;;;;;;;;;;20.36;48.10;100173.88;5042337;28;2307;-74
2023/11/12 11:27:50;;;;;;;;;;;;;;;20.42;47.90;100174.13;5042116;28;2330;-74
2023/11/12 11:30:16;;;;;;;;;;;;;;;20.45;47.85;100178.53;5041887;28;6076;-74
2023/11/12 11:32:52;;;;;;;;;;;;;;;20.49;47.58;100172.91;5040508;28;2311;-74
2023/11/12 11:35:18;;;;;;;;;;;;;;;20.51;47.21;100178.03;5036980;28;3530;-74
2023/11/12 11:38:07;;;;;;;;;;;;;;;20.53;47.10;100180.97;5038510;28;2349;-73
2023/11/12 11:40:34;;;;;;;;;;;;;;;20.51;47.03;100178.75;5041911;28;2246;-72
2023/11/12 11:43:20;;;;;;;;;;;;;;;20.48;46.82;100174.34;5040198;28;2266;-74
2023/11/12 11:46:05;;;;;;;;;;;;;;;20.43;46.62;100181.34;5042467;28;1918;-75
2023/11/12 11:48:31;;;;;;;;;;;;;;;20.22;47.31;100176.25;5039127;28;2259;-76
2023/11/12 11:50:58;;;;;;;;;;;;;;;20.13;47.38;100175.22;5039702;28;2309;-76
2023/11/12 11:53:27;;;;;;;;;;;;;;;20.08;47.37;100174.34;5038026;28;2588;-76
2023/11/12 11:55:57;;;;;;;;;;;;;;;20.07;47.51;100180.78;5039804;28;2195;-74
2023/11/12 11:58:24;;;;;;;;;;;;;;;19.94;47.55;100173.09;5046968;28;2393;-74
2023/11/12 12:00:57;;;;;;;;;;;;;;;19.99;47.25;100178.31;5038495;28;6150;-74
2023/11/12 12:03:26;;;;;;;;;;;;;;;19.98;47.35;100182.59;5040215;28;2176;-75
2023/11/12 12:05:55;;;;;;;;;;;;;;;20.12;47.32;100179.53;5040688;28;2354;-75
2023/11/12 12:08:21;;;;;;;;;;;;;;;19.95;47.03;100183.19;5043713;28;2278;-78
2023/11/12 12:10:48;;;;;;;;;;;;;;;20.20;46.86;100184.81;5040919;28;2280;-78
2023/11/12 12:13:15;;;;;;;;;;;;;;;19.95;46.59;100183.19;5040798;28;2247;-72
2023/11/12 12:15:44;;;;;;;;;;;;;;;19.93;46.77;100186.72;5020607;28;2506;-72
2023/11/12 12:18:18;;;;;;;;;;;;;;;19.16;47.88;100188.03;5041500;28;2200;-73
2023/11/12 12:20:44;;;;;;;;;;;;;;;19.39;47.41;100194.69;5035614;28;2342;-73
2023/11/12 12:23:11;;;;;;;;;;;;;;;19.43;47.05;100192.69;5038046;28;2224;-74
2023/11/12 12:25:50;;;;;;;;;;;;;;;19.45;46.67;100192.06;5043758;28;2323;-73
2023/11/12 12:28:20;;;;;;;;;;;;;;;19.49;46.71;100197.94;5037448;28;2168;-73
2023/11/12 12:30:50;;;;;;;;;;;;;;;19.50;46.51;100199.44;5036147;28;6068;-74
2023/11/12 12:33:17;;;;;;;;;;;;;;;19.48;46.34;100190.72;5037613;28;2297;-73
2023/11/12 12:35:43;;;;;;;;;;;;;;;19.46;46.36;100187.78;5037177;28;2431;-73
2023/11/12 12:38:12;;;;;;;;;;;;;;;19.46;46.39;100193.53;5038730;28;2282;-74
2023/11/12 12:40:38;;;;;;;;;;;;;;;19.43;46.61;100195.56;5037437;28;2376;-73
2023/11/12 12:43:06;;;;;;;;;;;;;;;19.44;46.48;100193.44;5036882;28;2301;-73
2023/11/12 12:45:34;;;;;;;;;;;;;;;19.44;46.39;100194.16;5036846;28;2190;-73
2023/11/12 12:48:09;;;;;;;;;;;;;;;19.45;46.41;100192.78;5037273;28;4095;-73
2023/11/12 12:50:36;;;;;;;;;;;;;;;19.46;46.47;100197.13;5035580;28;2517;-73
2023/11/12 12:53:13;;;;;;;;;;;;;;;19.47;46.31;100195.00;5031612;28;4035;-73